createdAt,value
2019-05-17T00:00:01.180Z,100168.92
2019-05-17T00:02:34.220Z,100178.20
2019-05-17T00:05:07.016Z,100175.41
2019-05-17T00:07:39.538Z,100173.76
2019-05-17T00:10:12.580Z,100170.98
2019-05-17T00:12:46.904Z,100173.13
2019-05-17T00:15:18.219Z,100168.09
2019-05-17T00:17:50.118Z,100159.33
2019-05-17T00:20:22.405Z,100159.80
2019-05-17T00:22:54.238Z,100160.42
2019-05-17T00:25:27.362Z,100161.42
2019-05-17T00:27:59.484Z,100156.58
2019-05-17T00:30:31.743Z,100155.76
2019-05-17T00:33:03.630Z,100153.11
2019-05-17T00:35:37.643Z,100158.63
2019-05-17T00:38:09.702Z,100148.50
2019-05-17T00:40:41.712Z,100154.30
2019-05-17T00:43:13.614Z,100151.92
2019-05-17T00:45:46.803Z,100146.13
2019-05-17T00:48:20.250Z,100138.19
2019-05-17T00:50:54.106Z,100134.20
2019-05-17T00:53:26.916Z,100133.61
2019-05-17T00:55:59.011Z,100139.73
2019-05-17T00:58:30.830Z,100145.03
2019-05-17T01:01:02.818Z,100141.83
2019-05-17T01:03:36.313Z,100138.48
2019-05-17T01:06:10.324Z,100140.27
2019-05-17T01:08:42.295Z,100134.84
2019-05-17T01:11:16.377Z,100130.54
2019-05-17T01:13:47.861Z,100128.36
2019-05-17T01:16:19.833Z,100121.73
2019-05-17T01:18:52.115Z,100121.41
2019-05-17T01:21:26.268Z,100116.11
2019-05-17T01:23:58.213Z,100113.80
2019-05-17T01:26:30.351Z,100120.91
2019-05-17T01:29:02.264Z,100113.92
2019-05-17T01:31:34.196Z,100115.61
2019-05-17T01:34:07.290Z,100121.27
2019-05-17T01:36:40.153Z,100115.12
2019-05-17T01:39:17.183Z,100108.16
2019-05-17T01:41:46.842Z,100108.63
2019-05-17T01:44:18.865Z,100099.53
2019-05-17T01:46:50.741Z,100088.79
2019-05-17T01:49:22.653Z,100104.47
2019-05-17T01:51:56.869Z,100101.95
2019-05-17T01:54:28.844Z,100103.77
2019-05-17T01:57:00.969Z,100103.77
2019-05-17T01:59:32.722Z,100091.36
2019-05-17T02:02:07.759Z,100098.34
2019-05-17T02:04:39.553Z,100096.16
2019-05-17T02:07:11.999Z,100095.20
2019-05-17T02:09:43.747Z,100094.23
2019-05-17T02:12:17.309Z,100090.59
2019-05-17T02:14:49.248Z,100090.59
2019-05-17T02:17:22.490Z,100089.63
2019-05-17T02:19:54.316Z,100088.94
2019-05-17T02:22:27.196Z,100082.09
2019-05-17T02:24:59.427Z,100084.05
2019-05-17T02:27:38.226Z,100089.98
2019-05-17T02:30:07.461Z,100085.52
2019-05-17T02:32:43.103Z,100079.86
2019-05-17T02:35:15.281Z,100083.69
2019-05-17T02:37:47.474Z,100090.80
2019-05-17T02:40:22.706Z,100085.52
2019-05-17T02:42:54.677Z,100094.09
2019-05-17T02:45:27.310Z,100095.73
2019-05-17T02:47:59.386Z,100090.94
2019-05-17T02:50:33.186Z,100094.41
2019-05-17T02:53:05.410Z,100092.13
2019-05-17T02:55:37.212Z,100088.52
2019-05-17T02:58:09.079Z,100090.17
2019-05-17T03:00:43.963Z,100091.86
2019-05-17T03:03:14.657Z,100097.98
2019-05-17T03:05:46.441Z,100097.48
2019-05-17T03:08:18.544Z,100103.50
2019-05-17T03:10:53.171Z,100100.86
2019-05-17T03:13:24.041Z,100100.00
2019-05-17T03:15:55.810Z,100103.83
2019-05-17T03:18:27.685Z,100099.86
2019-05-17T03:21:03.344Z,100099.03
2019-05-17T03:23:33.357Z,100099.86
2019-05-17T03:26:05.195Z,100091.28
2019-05-17T03:28:37.094Z,100088.64
2019-05-17T03:31:11.365Z,100092.97
2019-05-17T03:33:45.928Z,100089.69
2019-05-17T03:36:18.154Z,100084.25
2019-05-17T03:38:53.438Z,100088.59
2019-05-17T03:41:28.905Z,100089.91
2019-05-17T03:43:58.262Z,100090.47
2019-05-17T03:46:33.168Z,100089.47
2019-05-17T03:49:04.174Z,100082.58
2019-05-17T03:51:36.536Z,100085.31
2019-05-17T03:54:09.084Z,100085.37
2019-05-17T03:56:42.700Z,100086.55
2019-05-17T03:59:14.591Z,100089.39
2019-05-17T04:01:46.362Z,100078.52
2019-05-17T04:04:18.562Z,100078.50
2019-05-17T04:06:52.631Z,100084.03
2019-05-17T04:09:24.630Z,100082.98
2019-05-17T05:13:35.076Z,100096.23
2019-05-17T05:16:06.845Z,100093.38
2019-05-17T05:18:38.714Z,100094.87
2019-05-17T05:21:12.222Z,100088.95
2019-05-17T05:23:44.056Z,100085.63
2019-05-17T05:26:15.863Z,100083.06
2019-05-17T05:28:49.677Z,100095.04
2019-05-17T05:31:22.772Z,100092.20
2019-05-17T05:33:54.770Z,100098.99
2019-05-17T05:36:26.573Z,100101.41
2019-05-17T05:38:58.702Z,100106.09
2019-05-17T05:41:32.036Z,100105.80
2019-05-17T05:44:04.476Z,100109.92
2019-05-17T05:46:36.341Z,100119.77
2019-05-17T05:49:08.396Z,100121.09
2019-05-17T05:51:42.279Z,100121.45
2019-05-17T05:54:16.079Z,100123.95
2019-05-17T05:56:48.830Z,100128.73
2019-05-17T05:59:22.455Z,100129.45
2019-05-17T06:01:54.950Z,100131.95
2019-05-17T06:04:27.034Z,100131.27
2019-05-17T06:06:58.817Z,100132.23
2019-05-17T06:09:31.843Z,100132.59
2019-05-17T06:12:03.812Z,100133.95
2019-05-17T06:14:35.665Z,100132.98
2019-05-17T06:17:07.481Z,100134.41
2019-05-17T06:19:39.540Z,100135.00
2019-05-17T06:22:12.014Z,100133.80
2019-05-17T06:24:44.895Z,100126.67
2019-05-17T06:27:16.744Z,100127.50
2019-05-17T06:29:51.333Z,100117.39
2019-05-17T06:32:23.000Z,100122.65
2019-05-17T06:34:56.348Z,100131.42
2019-05-17T06:37:28.164Z,100128.33
2019-05-17T06:40:02.415Z,100122.80
2019-05-17T06:42:40.962Z,100130.17
2019-05-17T06:45:12.216Z,100134.02
2019-05-17T06:47:43.104Z,100135.94
2019-05-17T06:50:16.911Z,100140.88
2019-05-17T06:52:49.014Z,100139.60
2019-05-17T06:55:21.165Z,100152.61
2019-05-17T06:57:53.628Z,100155.48
2019-05-17T07:00:26.779Z,100156.58
2019-05-17T07:03:00.541Z,100151.53
2019-05-17T07:05:34.550Z,100158.59
2019-05-17T07:08:06.459Z,100152.77
2019-05-17T07:10:39.784Z,100157.36
2019-05-17T07:13:11.834Z,100163.98
2019-05-17T07:15:47.845Z,100162.58
2019-05-17T07:18:19.319Z,100165.56
2019-05-17T07:20:50.930Z,100156.46
2019-05-17T07:23:23.065Z,100152.55
2019-05-17T07:25:54.978Z,100151.93
2019-05-17T07:28:26.877Z,100156.28
2019-05-17T07:31:00.366Z,100159.25
2019-05-17T07:33:32.527Z,100155.56
2019-05-17T07:36:05.195Z,100161.31
2019-05-17T07:38:39.481Z,100158.03
2019-05-17T07:41:11.246Z,100160.23
2019-05-17T07:57:10.169Z,100181.02
2019-05-17T07:59:41.744Z,100175.74
2019-05-17T08:02:13.642Z,100174.56
2019-05-17T08:04:45.422Z,100176.72
2019-05-17T08:07:19.525Z,100169.75
2019-05-17T08:09:50.818Z,100175.74
2019-05-17T08:12:22.831Z,100175.94
2019-05-17T08:14:54.887Z,100177.80
2019-05-17T08:17:27.209Z,100170.00
2019-05-17T08:20:00.610Z,100172.61
2019-05-17T08:22:33.031Z,100174.28
2019-05-17T08:25:05.050Z,100178.44
2019-05-17T08:27:37.180Z,100175.55
2019-05-17T08:30:12.698Z,100171.86
2019-05-17T08:32:44.968Z,100171.31
2019-05-17T08:35:19.697Z,100172.41
2019-05-17T08:37:53.540Z,100172.36
2019-05-17T08:40:25.510Z,100159.72
2019-05-17T08:43:00.006Z,100166.58
2019-05-17T08:45:31.246Z,100165.91
2019-05-17T08:48:03.452Z,100164.66
2019-05-17T08:50:35.559Z,100161.69
2019-05-17T08:53:07.698Z,100166.58
2019-05-17T08:55:40.862Z,100159.44
2019-05-17T08:58:13.338Z,100161.84
2019-05-17T09:00:45.166Z,100163.25
2019-05-17T09:03:19.433Z,100158.03
2019-05-17T09:05:52.711Z,100159.33
2019-05-17T09:08:24.264Z,100152.00
2019-05-17T09:10:56.099Z,100150.30
2019-05-17T09:13:29.853Z,100155.32
2019-05-17T09:16:02.262Z,100149.03
2019-05-17T09:18:34.085Z,100151.39
2019-05-17T09:21:06.189Z,100152.56
2019-05-17T09:23:39.678Z,100156.59
2019-05-17T09:26:11.595Z,100152.59
2019-05-17T09:28:43.400Z,100145.93
2019-05-17T09:31:15.197Z,100150.09
2019-05-17T09:33:49.571Z,100152.39
2019-05-17T09:36:21.065Z,100152.25
2019-05-17T09:38:52.893Z,100147.75
2019-05-17T09:41:24.701Z,100152.55
2019-05-17T09:44:09.610Z,100145.38
2019-05-17T09:46:31.049Z,100142.03
2019-05-17T09:49:03.050Z,100147.09
2019-05-17T09:51:35.089Z,100142.55
2019-05-17T09:54:10.095Z,100132.73
2019-05-17T09:56:41.488Z,100123.06
2019-05-17T09:59:13.680Z,100126.02
2019-05-17T10:01:45.583Z,100122.98
2019-05-17T10:04:19.754Z,100127.18
2019-05-17T10:06:52.891Z,100125.37
2019-05-17T10:09:28.607Z,100130.30
2019-05-17T10:12:00.404Z,100124.84
2019-05-17T10:14:32.376Z,100135.88
2019-05-17T10:17:04.883Z,100136.95
2019-05-17T10:19:36.817Z,100139.41
2019-05-17T10:22:10.402Z,100140.29
2019-05-17T10:24:42.639Z,100136.55
2019-05-17T10:27:14.835Z,100128.37
2019-05-17T10:29:46.772Z,100125.73
2019-05-17T10:32:20.495Z,100129.91
2019-05-17T10:34:52.431Z,100130.65
2019-05-17T10:37:24.398Z,100139.82
2019-05-17T10:39:56.455Z,100141.70
2019-05-17T10:42:30.597Z,100133.39
2019-05-17T10:45:02.143Z,100132.23
2019-05-17T10:47:34.000Z,100129.30
2019-05-17T10:50:07.076Z,100129.00
2019-05-17T10:52:40.875Z,100134.38
2019-05-17T10:55:13.168Z,100137.21
2019-05-17T10:57:44.999Z,100136.22
2019-05-17T11:00:19.824Z,100135.05
2019-05-17T11:02:52.425Z,100137.37
2019-05-17T11:05:24.515Z,100140.72
2019-05-17T11:07:56.983Z,100141.08
2019-05-17T11:10:30.000Z,100139.53
2019-05-17T11:13:02.033Z,100134.21
2019-05-17T11:15:34.102Z,100144.61
2019-05-17T11:18:05.980Z,100150.34
2019-05-17T11:20:38.250Z,100147.95
2019-05-17T11:23:10.435Z,100158.24
2019-05-17T11:25:45.679Z,100161.11
2019-05-17T11:28:16.578Z,100159.80
2019-05-17T11:30:49.160Z,100161.38
2019-05-17T11:33:21.039Z,100159.73
2019-05-17T11:35:53.198Z,100166.22
2019-05-17T11:38:25.536Z,100164.16
2019-05-17T11:40:57.876Z,100164.93
2019-05-17T11:43:30.643Z,100160.22
2019-05-17T11:46:02.811Z,100168.12
2019-05-17T11:48:35.012Z,100167.91
2019-05-17T11:51:07.400Z,100164.88
2019-05-17T11:53:40.337Z,100169.06
2019-05-17T11:56:12.730Z,100175.01
2019-05-17T11:58:44.925Z,100171.06
2019-05-17T12:01:17.280Z,100168.70
2019-05-17T12:03:49.138Z,100175.97
2019-05-17T12:06:21.194Z,100166.67
2019-05-17T12:08:53.350Z,100174.34
2019-05-17T12:11:25.847Z,100177.58
2019-05-17T12:13:58.156Z,100169.19
2019-05-17T12:16:30.458Z,100166.31
2019-05-17T12:19:02.733Z,100176.91
2019-05-17T12:21:35.120Z,100175.72
2019-05-17T12:24:08.196Z,100178.29
2019-05-17T12:26:40.889Z,100188.73
2019-05-17T12:29:13.449Z,100179.67
2019-05-17T12:31:45.820Z,100185.08
2019-05-17T12:34:20.235Z,100188.98
2019-05-17T12:36:52.987Z,100197.92
2019-05-17T12:39:25.169Z,100198.84
2019-05-17T12:41:57.784Z,100190.88
2019-05-17T12:44:29.883Z,100197.70
2019-05-17T12:47:01.767Z,100194.72
2019-05-17T12:49:33.835Z,100191.72
2019-05-17T12:52:06.125Z,100194.24
2019-05-17T12:54:38.364Z,100199.58
2019-05-17T12:57:10.591Z,100205.94
2019-05-17T12:59:42.890Z,100213.41
2019-05-17T13:02:15.278Z,100218.42
2019-05-17T13:04:47.409Z,100228.24
2019-05-17T13:07:20.043Z,100230.59
2019-05-17T13:09:52.545Z,100242.19
2019-05-17T13:12:24.737Z,100220.80
2019-05-17T13:14:56.865Z,100213.80
2019-05-17T13:17:29.210Z,100216.55
2019-05-17T13:20:02.208Z,100217.54
2019-05-17T13:22:35.962Z,100215.46
2019-05-17T13:25:10.041Z,100222.04
2019-05-17T13:27:43.176Z,100237.52
2019-05-17T13:30:16.210Z,100237.95
2019-05-17T13:32:48.621Z,100233.27
2019-05-17T13:35:21.283Z,100233.20
2019-05-17T13:37:54.072Z,100227.41
2019-05-17T13:40:27.243Z,100222.20
2019-05-17T13:42:59.957Z,100232.79
2019-05-17T13:45:32.567Z,100236.56
2019-05-17T13:48:05.304Z,100229.06
2019-05-17T13:50:38.038Z,100223.28
2019-05-17T13:53:11.000Z,100231.69
2019-05-17T13:55:43.743Z,100226.56
2019-05-17T13:58:16.396Z,100226.19
2019-05-17T14:00:49.332Z,100214.08
2019-05-17T14:03:21.862Z,100220.11
2019-05-17T14:05:54.241Z,100224.97
2019-05-17T14:08:27.459Z,100224.62
2019-05-17T14:11:00.117Z,100230.11
2019-05-17T14:13:32.876Z,100227.47
2019-05-17T14:16:05.066Z,100235.56
2019-05-17T14:18:37.512Z,100226.69
2019-05-17T14:21:10.413Z,100227.57
2019-05-17T14:23:42.571Z,100225.91
2019-05-17T14:26:14.926Z,100226.44
2019-05-17T14:28:47.629Z,100226.42
2019-05-17T14:31:20.160Z,100226.78
2019-05-17T14:33:53.203Z,100232.02
2019-05-17T14:36:25.743Z,100224.47
2019-05-17T14:38:57.981Z,100226.45
2019-05-17T14:41:30.035Z,100230.49
2019-05-17T14:44:02.128Z,100227.39
2019-05-17T14:46:34.048Z,100216.83
2019-05-17T14:49:06.137Z,100224.75
2019-05-17T14:51:37.992Z,100224.52
2019-05-17T14:54:10.107Z,100218.97
2019-05-17T14:56:42.013Z,100215.96
2019-05-17T14:59:15.216Z,100217.33
2019-05-17T15:01:47.075Z,100217.20
2019-05-17T15:04:19.286Z,100213.78
2019-05-17T15:06:51.104Z,100211.78
2019-05-17T15:09:23.503Z,100212.54
2019-05-17T15:11:55.677Z,100223.44
2019-05-17T15:14:29.654Z,100217.34
2019-05-17T15:17:01.535Z,100215.30
2019-05-17T15:19:33.937Z,100215.80
2019-05-17T15:22:05.862Z,100209.03
2019-05-17T15:24:37.970Z,100213.84
2019-05-17T15:27:10.212Z,100208.84
2019-05-17T15:29:42.209Z,100213.67
2019-05-17T15:32:14.003Z,100212.63
2019-05-17T15:34:46.092Z,100200.06
2019-05-17T15:37:18.193Z,100199.75
2019-05-17T15:39:50.342Z,100195.71
2019-05-17T15:42:22.520Z,100196.91
2019-05-17T15:44:54.409Z,100195.80
2019-05-17T15:47:27.436Z,100190.34
2019-05-17T15:49:59.417Z,100190.50
2019-05-17T15:52:31.242Z,100186.30
2019-05-17T15:55:03.231Z,100189.52
2019-05-17T15:57:35.297Z,100186.22
2019-05-17T16:00:08.463Z,100184.59
2019-05-17T16:02:40.527Z,100189.05
2019-05-17T16:05:12.622Z,100184.59
2019-05-17T16:07:44.506Z,100185.86
2019-05-17T16:10:16.774Z,100184.18
2019-05-17T16:13:01.978Z,100184.69
2019-05-17T16:15:22.862Z,100188.28
2019-05-17T16:17:56.836Z,100187.62
2019-05-17T16:20:29.041Z,100193.13
2019-05-17T16:23:01.038Z,100192.36
2019-05-17T16:25:34.062Z,100188.80
2019-05-17T16:28:05.962Z,100185.65
2019-05-17T16:30:37.939Z,100185.89
2019-05-17T16:33:11.011Z,100194.40
2019-05-17T16:35:44.188Z,100186.33
2019-05-17T16:38:16.045Z,100186.11
2019-05-17T16:40:47.928Z,100185.00
2019-05-17T16:43:20.944Z,100190.94
2019-05-17T16:45:53.151Z,100193.33
2019-05-17T16:48:25.088Z,100193.52
2019-05-17T16:50:57.189Z,100187.13
2019-05-17T16:53:29.155Z,100191.97
2019-05-17T16:56:01.020Z,100191.52
2019-05-17T16:58:33.105Z,100197.41
2019-05-17T17:01:06.284Z,100195.82
2019-05-17T17:03:44.212Z,100196.05
2019-05-17T17:06:12.876Z,100203.98
2019-05-17T17:08:44.995Z,100198.85
2019-05-17T17:11:17.123Z,100196.10
2019-05-17T17:13:49.430Z,100197.30
2019-05-17T17:16:21.640Z,100194.98
2019-05-17T17:18:53.456Z,100193.34
2019-05-17T17:21:25.573Z,100192.81
2019-05-17T17:23:57.390Z,100197.89
2019-05-17T17:26:29.618Z,100194.78
2019-05-17T17:29:02.162Z,100199.94
2019-05-17T17:31:34.275Z,100195.72
2019-05-17T17:34:06.313Z,100190.77
2019-05-17T17:36:39.158Z,100187.17
2019-05-17T17:39:10.990Z,100193.91
2019-05-17T17:41:43.024Z,100197.80
2019-05-17T17:44:15.086Z,100193.35
2019-05-17T17:46:46.953Z,100192.02
2019-05-17T17:49:18.734Z,100193.23
2019-05-17T17:51:50.796Z,100190.06
2019-05-17T17:54:22.629Z,100195.74
2019-05-17T17:56:55.255Z,100201.75
2019-05-17T17:59:27.315Z,100212.92
2019-05-17T18:01:59.962Z,100205.36
2019-05-17T18:04:31.993Z,100208.84
2019-05-17T18:07:05.167Z,100204.00
2019-05-17T18:09:36.999Z,100208.09
2019-05-17T18:12:08.861Z,100213.23
2019-05-17T18:14:40.729Z,100213.53
2019-05-17T18:17:12.634Z,100217.45
2019-05-17T18:19:44.462Z,100213.91
2019-05-17T18:22:16.324Z,100213.63
2019-05-17T18:24:48.278Z,100215.25
2019-05-17T18:27:20.201Z,100216.97
2019-05-17T18:29:52.173Z,100225.23
2019-05-17T18:32:24.357Z,100223.31
2019-05-17T18:34:56.195Z,100231.37
2019-05-17T18:37:28.313Z,100239.57
2019-05-17T18:40:00.317Z,100243.66
2019-05-17T18:42:32.418Z,100251.66
2019-05-17T18:45:04.656Z,100254.73
2019-05-17T18:47:36.656Z,100258.78
2019-05-17T18:50:10.146Z,100261.98
2019-05-17T18:52:42.786Z,100259.38
2019-05-17T18:55:16.718Z,100263.14
2019-05-17T18:57:50.324Z,100263.87
2019-05-17T19:00:24.095Z,100266.41
2019-05-17T19:02:56.888Z,100270.36
2019-05-17T19:05:29.004Z,100278.21
2019-05-17T19:08:01.393Z,100276.27
2019-05-17T19:10:33.432Z,100284.14
2019-05-17T19:13:05.789Z,100282.05
2019-05-17T19:15:38.369Z,100278.49
2019-05-17T19:18:10.689Z,100276.73
2019-05-17T19:20:42.887Z,100275.64
2019-05-17T19:23:15.180Z,100282.91
2019-05-17T19:25:47.189Z,100279.34
2019-05-17T19:28:19.288Z,100278.80
2019-05-17T19:30:51.488Z,100280.55
2019-05-17T19:33:23.824Z,100286.16
2019-05-17T19:35:55.980Z,100276.32
2019-05-17T19:38:28.568Z,100267.78
2019-05-17T19:41:00.634Z,100266.63
2019-05-17T19:43:33.356Z,100271.06
2019-05-17T19:46:05.573Z,100266.17
2019-05-17T19:48:37.707Z,100271.43
2019-05-17T19:51:09.925Z,100269.41
2019-05-17T19:53:42.333Z,100269.33
2019-05-17T19:56:14.357Z,100274.38
2019-05-17T19:58:46.700Z,100278.77
2019-05-17T20:01:18.963Z,100274.37
2019-05-17T20:03:51.156Z,100276.94
2019-05-17T20:06:23.140Z,100280.98
2019-05-17T20:08:55.424Z,100275.77
2019-05-17T20:11:34.485Z,100276.39
2019-05-17T20:14:01.227Z,100266.75
2019-05-17T20:16:33.303Z,100269.81
2019-05-17T20:19:05.573Z,100261.17
2019-05-17T20:21:37.613Z,100267.92
2019-05-17T20:24:09.943Z,100260.87
2019-05-17T20:26:41.835Z,100262.63
2019-05-17T20:29:13.875Z,100249.76
2019-05-17T20:31:46.317Z,100248.34
2019-05-17T20:34:18.541Z,100249.73
2019-05-17T20:36:50.382Z,100246.02
2019-05-17T20:39:22.342Z,100248.25
2019-05-17T20:41:57.343Z,100248.52
2019-05-17T20:44:28.173Z,100255.43
2019-05-17T20:47:00.127Z,100257.09
2019-05-17T20:49:32.351Z,100252.78
2019-05-17T20:52:04.341Z,100252.68
2019-05-17T20:54:36.635Z,100256.92
2019-05-17T20:57:09.004Z,100251.78
2019-05-17T20:59:40.958Z,100252.25
2019-05-17T21:02:13.093Z,100249.47
2019-05-17T21:04:44.995Z,100255.59
2019-05-17T21:07:17.807Z,100255.27
2019-05-17T21:09:50.059Z,100261.38
2019-05-17T21:12:21.965Z,100256.09
2019-05-17T21:14:56.399Z,100252.12
2019-05-17T21:17:27.785Z,100252.81
2019-05-17T21:20:00.752Z,100261.48
2019-05-17T21:22:32.537Z,100261.82
2019-05-17T21:25:04.715Z,100254.23
2019-05-17T21:27:36.592Z,100255.43
2019-05-17T21:30:09.961Z,100257.78
2019-05-17T21:32:42.021Z,100250.56
2019-05-17T21:35:14.197Z,100254.23
2019-05-17T21:37:46.025Z,100255.80
2019-05-17T21:40:18.501Z,100255.86
2019-05-17T21:42:50.291Z,100253.17
2019-05-17T21:45:22.507Z,100247.58
2019-05-17T21:47:54.594Z,100251.67
2019-05-17T21:50:28.455Z,100250.08
2019-05-17T21:53:01.391Z,100246.30
2019-05-17T21:55:33.313Z,100247.36
2019-05-17T21:58:06.267Z,100253.22
2019-05-17T22:01:20.946Z,100256.92
2019-05-17T22:03:53.289Z,100263.74
2019-05-17T22:06:25.483Z,100263.97
2019-05-17T22:08:57.309Z,100263.97
2019-05-17T22:11:29.297Z,100253.66
2019-05-17T22:14:01.203Z,100249.27
2019-05-17T22:16:33.417Z,100256.09
2019-05-17T22:19:05.641Z,100249.33
2019-05-17T22:21:37.785Z,100243.52
2019-05-17T22:24:09.606Z,100241.01
2019-05-17T22:26:43.337Z,100241.88
2019-05-17T22:29:16.283Z,100237.34
2019-05-17T22:31:48.268Z,100232.04
2019-05-17T22:34:22.091Z,100220.52
2019-05-17T22:36:54.164Z,100226.59
2019-05-17T22:39:25.955Z,100226.50
2019-05-17T22:41:57.815Z,100231.48
2019-05-17T22:44:30.544Z,100225.81
2019-05-17T22:47:03.628Z,100218.00
2019-05-17T22:49:35.713Z,100220.09
2019-05-17T22:52:07.588Z,100223.87
2019-05-17T22:54:39.414Z,100217.02
2019-05-17T22:57:11.286Z,100218.84
2019-05-17T22:59:43.901Z,100212.63
2019-05-17T23:02:15.832Z,100216.54
2019-05-17T23:04:47.959Z,100213.30
2019-05-17T23:07:20.197Z,100212.70
2019-05-17T23:09:52.119Z,100218.77
2019-05-17T23:12:24.222Z,100211.59
2019-05-17T23:14:56.006Z,100205.41
2019-05-17T23:17:28.158Z,100204.98
2019-05-17T23:20:00.391Z,100206.34
2019-05-17T23:22:32.485Z,100207.47
2019-05-17T23:25:04.401Z,100218.32
2019-05-17T23:27:36.409Z,100221.47
2019-05-17T23:30:10.151Z,100224.94
2019-05-17T23:32:42.193Z,100226.89
2019-05-17T23:35:14.308Z,100233.02
2019-05-17T23:37:46.323Z,100232.05
2019-05-17T23:40:18.244Z,100231.56
2019-05-17T23:42:49.988Z,100226.33
2019-05-17T23:45:21.829Z,100230.30
2019-05-17T23:47:53.641Z,100237.29
2019-05-17T23:50:25.545Z,100232.48
2019-05-17T23:52:57.779Z,100232.36
2019-05-17T23:55:29.591Z,100232.95
2019-05-17T23:58:01.916Z,100238.74
